South Haven, Michigan
Current Conditions -  °F | °C
As of 5:14 PM on Monday 20 Oct 2014 (Local Time) from KLWA Reporting Station
Overcast Overcast  
Wind Chill: 55°   Ceiling: 2300
Heat Index: 55°   Visibility: 10mi
Dew Point: 49°   Wind: 9mph
Humidity: 78%   Direction: 340°NNW
Pressure: 29.86"   Gusts: 21mph
Location:  42.4°N, 86.27°W
Report Text: KLWA 202114Z AUTO 34008G18KT 10SM SCT015 BKN023 OVC060 13/09 A2986 RMK AO2 T01300093
Loading
Personal Weather Stations






























Interactive Weather Map New forecast layout! Learn more

10-Day Weather Forecast

Advertisements
Track Severe Weather on mobile